EmailTwitter


Observations de surface / France / LFBO (07630)

Régions: Québec | Canada | États-Unis | Europe | France | UK | Ailleurs
Station
Affichage
Infos & localisation pour LFBO (07630) | Aide pour décoder les METARs

Observations prises le 2020-07-09 à 23H30 UTC à TOULOUSE/BLAGNAC, FR (LFBO)

Température: 24.0 Celsius

Point de rosée: 18.0 Celsius

Humidité relative: 69%

Indice Humidex: 30.

Vents: Ouest à 17 km/h ou 9 noeuds.

Pression au niveau moyen de la mer: 101.70 kilopascals.

Observation METAR:

LFBO 092330Z AUTO 28009KT CAVOK 24/18 Q1017 NOSIG=